createdAt,value
2024-05-09T00:00:45.819Z,13.10
2024-05-09T00:04:56.465Z,13.10
2024-05-09T00:09:06.945Z,13.00
2024-05-09T00:13:17.372Z,13.00
2024-05-09T00:17:31.191Z,13.00
2024-05-09T00:21:44.356Z,13.00
2024-05-09T00:25:54.804Z,13.00
2024-05-09T00:30:07.041Z,13.00
2024-05-09T00:34:20.546Z,13.00
2024-05-09T00:38:31.120Z,13.00
2024-05-09T00:42:41.694Z,13.00
2024-05-09T00:46:54.878Z,12.90
2024-05-09T00:51:08.489Z,12.90
2024-05-09T00:55:19.405Z,12.90
2024-05-09T00:59:30.737Z,12.80
2024-05-09T01:03:41.357Z,12.80
2024-05-09T01:07:54.739Z,12.80
2024-05-09T01:12:05.201Z,12.80
2024-05-09T01:16:16.555Z,12.80
2024-05-09T01:20:37.214Z,12.70
2024-05-09T01:24:55.198Z,12.70
2024-05-09T01:29:05.656Z,12.70
2024-05-09T01:33:16.481Z,12.60
2024-05-09T01:37:27.026Z,12.60
2024-05-09T01:41:40.225Z,12.50
2024-05-09T01:45:50.666Z,12.50
2024-05-09T01:50:01.327Z,12.40
2024-05-09T01:54:11.885Z,12.30
2024-05-09T01:58:24.985Z,12.40
2024-05-09T02:02:35.546Z,12.30
2024-05-09T02:06:46.091Z,12.30
2024-05-09T02:10:56.599Z,12.20
2024-05-09T02:15:09.979Z,12.20
2024-05-09T02:19:20.738Z,12.20
2024-05-09T02:23:31.311Z,12.00
2024-05-09T02:27:41.789Z,12.10
2024-05-09T02:31:55.016Z,12.00
2024-05-09T02:36:05.908Z,12.10
2024-05-09T02:40:21.663Z,12.00
2024-05-09T02:44:36.201Z,12.00
2024-05-09T02:48:49.512Z,12.00
2024-05-09T02:52:59.910Z,11.90
2024-05-09T02:57:10.360Z,11.80
2024-05-09T03:01:20.810Z,11.80
2024-05-09T03:05:34.274Z,11.80
2024-05-09T03:09:49.094Z,11.80
2024-05-09T03:13:59.618Z,11.80
2024-05-09T03:18:10.229Z,11.70
2024-05-09T03:22:23.542Z,11.70
2024-05-09T03:26:34.096Z,11.60
2024-05-09T03:30:44.596Z,11.60
2024-05-09T03:34:55.153Z,11.60
2024-05-09T03:39:08.308Z,11.50
2024-05-09T03:43:19.091Z,11.50
2024-05-09T03:47:29.719Z,11.40
2024-05-09T03:51:40.224Z,11.40
2024-05-09T03:55:53.412Z,11.40
2024-05-09T04:00:05.507Z,11.40
2024-05-09T04:04:17.715Z,11.40
2024-05-09T04:08:25.421Z,11.40
2024-05-09T04:12:38.599Z,11.30
2024-05-09T04:16:49.081Z,11.30
2024-05-09T04:20:59.967Z,11.20
2024-05-09T04:25:10.736Z,11.20
2024-05-09T04:29:23.890Z,11.30
2024-05-09T04:33:34.657Z,11.30
2024-05-09T04:37:45.225Z,11.20
2024-05-09T04:41:55.646Z,11.20
2024-05-09T04:46:08.826Z,11.10
2024-05-09T04:50:29.047Z,11.10
2024-05-09T04:54:45.518Z,11.10
2024-05-09T04:58:56.052Z,11.10
2024-05-09T05:03:10.860Z,11.10
2024-05-09T05:07:23.400Z,11.10
2024-05-09T05:11:33.780Z,11.20
2024-05-09T05:15:41.673Z,11.20
2024-05-09T05:19:54.986Z,11.20
2024-05-09T05:24:05.425Z,11.30
2024-05-09T05:28:15.795Z,11.40
2024-05-09T05:32:26.272Z,11.40
2024-05-09T05:36:39.490Z,11.50
2024-05-09T05:40:49.902Z,11.60
2024-05-09T05:45:00.404Z,11.70
2024-05-09T05:49:11.076Z,11.80
2024-05-09T05:53:24.388Z,11.90
2024-05-09T05:57:34.837Z,12.00
2024-05-09T06:01:45.334Z,12.10
2024-05-09T06:05:55.933Z,12.30
2024-05-09T06:10:17.272Z,12.40
2024-05-09T06:14:32.056Z,12.50
2024-05-09T06:18:42.641Z,12.60
2024-05-09T06:22:53.241Z,12.70
2024-05-09T06:27:07.004Z,12.70
2024-05-09T06:31:17.447Z,12.80
2024-05-09T06:39:38.972Z,13.00
2024-05-09T06:43:52.178Z,13.10
2024-05-09T06:48:02.968Z,13.20
2024-05-09T06:52:13.541Z,13.20
2024-05-09T06:56:24.012Z,13.40
2024-05-09T07:00:39.968Z,13.50
2024-05-09T07:04:52.117Z,13.60
2024-05-09T07:09:02.771Z,13.70
2024-05-09T07:13:13.456Z,13.80
2024-05-09T07:17:27.201Z,13.90
2024-05-09T07:21:37.755Z,13.90
2024-05-09T07:34:33.268Z,14.20
2024-05-09T07:38:45.933Z,14.20
2024-05-09T07:42:56.831Z,14.30
2024-05-09T07:48:14.599Z,14.40
2024-05-09T07:56:21.902Z,14.70
2024-05-09T08:00:33.999Z,15.00
2024-05-09T08:04:56.605Z,15.10
2024-05-09T08:13:35.971Z,15.60
2024-05-09T08:17:46.981Z,15.90
2024-05-09T08:21:57.826Z,16.20
2024-05-09T08:26:09.083Z,16.40
2024-05-09T08:30:29.785Z,16.80
2024-05-09T08:34:46.932Z,17.00
2024-05-09T08:38:57.753Z,17.00
2024-05-09T08:43:12.134Z,17.40
2024-05-09T08:47:26.919Z,17.80
2024-05-09T08:51:37.697Z,18.10
2024-05-09T08:55:49.649Z,18.40
2024-05-09T09:00:06.261Z,18.70
2024-05-09T09:04:22.232Z,18.90
2024-05-09T09:08:32.660Z,19.20
2024-05-09T09:12:43.987Z,19.50
2024-05-09T09:16:57.011Z,19.60
2024-05-09T09:21:13.342Z,19.80
2024-05-09T09:25:25.414Z,19.90
2024-05-09T09:29:35.881Z,20.00
2024-05-09T09:33:46.868Z,20.20
2024-05-09T09:38:03.004Z,20.50
2024-05-09T09:42:15.007Z,20.40
2024-05-09T09:46:26.212Z,20.60
2024-05-09T09:50:38.076Z,20.70
2024-05-09T09:54:51.735Z,20.90
2024-05-09T09:59:03.628Z,20.90
2024-05-09T10:03:14.216Z,20.90
2024-05-09T10:07:26.842Z,20.40
2024-05-09T10:11:45.394Z,20.00
2024-05-09T10:15:59.810Z,19.90
2024-05-09T10:20:18.338Z,20.20
2024-05-09T10:24:47.957Z,20.20
2024-05-09T10:29:03.731Z,20.50
2024-05-09T10:33:14.590Z,20.50
2024-05-09T10:37:23.148Z,20.70
2024-05-09T10:46:05.188Z,20.40
2024-05-09T10:50:22.434Z,20.20
2024-05-09T10:54:39.052Z,19.70
2024-05-09T10:58:49.587Z,19.50
2024-05-09T11:03:02.756Z,19.50
2024-05-09T11:07:13.803Z,19.00
2024-05-09T11:11:24.379Z,18.80
2024-05-09T11:15:41.103Z,18.90
2024-05-09T11:19:54.451Z,19.30
2024-05-09T11:24:06.620Z,19.70
2024-05-09T11:28:18.496Z,20.10
2024-05-09T11:32:33.218Z,20.40
2024-05-09T11:36:46.667Z,20.60
2024-05-09T11:40:57.384Z,20.50
2024-05-09T11:45:08.025Z,20.60
2024-05-09T11:49:18.614Z,20.30
2024-05-09T11:53:31.853Z,20.40
2024-05-09T11:57:42.473Z,20.50
2024-05-09T12:01:53.047Z,20.10
2024-05-09T12:06:03.787Z,20.20
2024-05-09T12:10:22.183Z,20.50
2024-05-09T12:14:36.398Z,21.00
2024-05-09T12:18:46.993Z,21.00
2024-05-09T12:22:57.454Z,20.60
2024-05-09T12:27:10.750Z,20.80
2024-05-09T12:31:21.162Z,20.60
2024-05-09T12:35:31.632Z,20.00
2024-05-09T12:39:39.320Z,19.40
2024-05-09T12:43:52.554Z,19.30
2024-05-09T12:48:03.193Z,19.30
2024-05-09T12:52:13.836Z,19.20
2024-05-09T12:56:24.348Z,19.60
2024-05-09T13:00:37.704Z,19.50
2024-05-09T13:04:48.225Z,19.30
2024-05-09T13:08:58.836Z,19.50
2024-05-09T13:13:09.469Z,19.50
2024-05-09T13:17:22.925Z,19.10
2024-05-09T13:21:33.445Z,19.30
2024-05-09T13:25:43.911Z,19.60
2024-05-09T13:29:57.503Z,20.10
2024-05-09T13:34:10.823Z,20.40
2024-05-09T13:38:22.102Z,20.40
2024-05-09T13:42:32.609Z,20.60
2024-05-09T13:46:43.076Z,20.60
2024-05-09T13:50:56.241Z,20.70
2024-05-09T13:55:06.720Z,20.80
2024-05-09T13:59:17.202Z,21.00
2024-05-09T14:03:30.224Z,21.00
2024-05-09T14:07:43.697Z,20.30
2024-05-09T14:11:54.117Z,20.30
2024-05-09T14:16:04.582Z,20.20
2024-05-09T14:20:22.987Z,20.10
2024-05-09T14:24:41.739Z,20.10
2024-05-09T14:28:52.205Z,20.00
2024-05-09T14:33:02.812Z,20.00
2024-05-09T14:37:13.398Z,20.10
2024-05-09T14:41:26.599Z,20.00
2024-05-09T14:45:37.049Z,20.00
2024-05-09T14:49:47.646Z,19.90
2024-05-09T14:53:58.029Z,19.80
2024-05-09T14:58:11.862Z,19.60
2024-05-09T15:02:22.926Z,19.40
2024-05-09T15:06:33.528Z,19.40
2024-05-09T15:10:44.344Z,19.60
2024-05-09T15:14:57.689Z,19.90
2024-05-09T15:19:08.318Z,20.10
2024-05-09T15:23:19.037Z,20.30
2024-05-09T15:27:29.759Z,20.40
2024-05-09T15:31:42.931Z,20.50
2024-05-09T15:35:54.462Z,20.30
2024-05-09T15:40:07.500Z,20.40
2024-05-09T15:44:20.073Z,20.50
2024-05-09T15:48:33.450Z,20.50
2024-05-09T15:52:44.032Z,20.40
2024-05-09T15:56:54.403Z,20.40
2024-05-09T16:01:05.004Z,20.30
2024-05-09T16:05:15.586Z,20.40
2024-05-09T16:09:26.073Z,20.50
2024-05-09T16:13:36.524Z,20.30
2024-05-09T16:17:47.036Z,20.50
2024-05-09T16:22:00.711Z,20.40
2024-05-09T16:26:11.155Z,20.40
2024-05-09T16:30:28.256Z,20.70
2024-05-09T16:34:44.771Z,20.50
2024-05-09T16:38:57.930Z,20.50
2024-05-09T16:43:09.229Z,20.50
2024-05-09T16:47:20.402Z,20.60
2024-05-09T16:51:30.972Z,20.70
2024-05-09T16:55:44.190Z,20.80
2024-05-09T16:59:54.631Z,20.70
2024-05-09T17:04:05.302Z,20.60
2024-05-09T17:08:16.159Z,20.70
2024-05-09T17:12:30.269Z,20.50
2024-05-09T17:45:02.513Z,20.50
2024-05-09T17:49:13.157Z,20.40
2024-05-09T17:53:34.635Z,20.20
2024-05-09T17:57:45.129Z,20.20
2024-05-09T18:01:58.400Z,20.10
2024-05-09T18:06:09.268Z,20.00
2024-05-09T18:10:25.757Z,19.90
2024-05-09T18:14:44.045Z,19.70
2024-05-09T18:18:57.898Z,19.50
2024-05-09T18:23:09.290Z,19.20
2024-05-09T18:27:19.816Z,19.00
2024-05-09T18:31:30.416Z,18.70
2024-05-09T18:35:44.691Z,18.40
2024-05-09T18:39:55.213Z,18.00
2024-05-09T18:44:05.761Z,17.60
2024-05-09T18:48:16.705Z,17.30
2024-05-09T18:52:30.117Z,17.10
2024-05-09T18:56:40.922Z,17.00
2024-05-09T19:00:54.269Z,17.00
2024-05-09T19:05:06.136Z,16.90
2024-05-09T19:09:19.535Z,16.70
2024-05-09T19:13:30.186Z,16.60
2024-05-09T19:17:40.876Z,16.50
2024-05-09T19:21:51.422Z,16.40
2024-05-09T19:26:04.717Z,16.20
2024-05-09T19:30:24.992Z,16.20
2024-05-09T19:34:44.216Z,16.10
2024-05-09T19:38:54.692Z,15.90
2024-05-09T19:43:08.386Z,15.80
2024-05-09T19:47:19.192Z,15.60
2024-05-09T19:51:29.738Z,15.50
2024-05-09T19:55:40.374Z,15.40
2024-05-09T19:59:53.956Z,15.30
2024-05-09T20:04:04.927Z,15.20
2024-05-09T20:08:16.445Z,15.10
2024-05-09T20:12:27.167Z,14.90
2024-05-09T20:16:41.586Z,14.70
2024-05-09T20:20:53.411Z,14.60
2024-05-09T20:25:05.426Z,14.50
2024-05-09T20:29:16.473Z,14.50
2024-05-09T20:33:30.115Z,14.50
2024-05-09T20:37:44.755Z,14.60
2024-05-09T20:41:55.756Z,14.40
2024-05-09T20:46:07.199Z,14.40
2024-05-09T20:50:28.859Z,14.30
2024-05-09T20:54:47.055Z,14.30
2024-05-09T20:58:57.841Z,14.50
2024-05-09T21:03:09.121Z,14.50
2024-05-09T21:07:22.939Z,14.50
2024-05-09T21:11:34.872Z,14.40
2024-05-09T21:15:48.375Z,14.50
2024-05-09T21:20:01.849Z,14.40
2024-05-09T21:24:16.924Z,14.60
2024-05-09T21:28:28.220Z,14.70
2024-05-09T21:32:39.608Z,14.70
2024-05-09T21:36:53.125Z,14.80
2024-05-09T21:41:07.034Z,14.80
2024-05-09T21:45:19.252Z,14.80
2024-05-09T21:49:34.264Z,14.80
2024-05-09T21:53:45.524Z,14.70
2024-05-09T21:58:03.743Z,14.70
2024-05-09T22:02:17.753Z,14.80
2024-05-09T22:06:34.579Z,14.70
2024-05-09T22:10:47.535Z,14.70
2024-05-09T22:15:02.931Z,14.70
2024-05-09T22:19:17.084Z,14.70
2024-05-09T22:23:28.695Z,14.60
2024-05-09T22:27:40.693Z,14.60
2024-05-09T22:31:55.774Z,14.60
2024-05-09T22:36:04.350Z,14.60
2024-05-09T22:40:20.683Z,14.60
2024-05-09T22:44:39.360Z,14.50
2024-05-09T22:48:54.696Z,14.40
2024-05-09T22:53:06.031Z,14.40
2024-05-09T22:57:17.404Z,14.30
2024-05-09T23:01:30.548Z,14.30
2024-05-09T23:05:44.466Z,14.30
2024-05-09T23:09:56.486Z,14.20
2024-05-09T23:14:08.895Z,14.20
2024-05-09T23:18:22.457Z,14.20
2024-05-09T23:22:37.396Z,14.20
2024-05-09T23:26:50.044Z,14.20
2024-05-09T23:31:01.853Z,14.20
2024-05-09T23:35:14.416Z,14.20
2024-05-09T23:39:29.442Z,14.20
2024-05-09T23:43:41.296Z,14.10
2024-05-09T23:47:53.583Z,14.10
2024-05-09T23:52:05.826Z,14.10
2024-05-09T23:56:22.396Z,14.10
